Time;durP1;ratioP1;P1;durP2;ratioP2;P2;SDS_P1;SDS_P2;PMS_P1;PMS_P2;Temp;Humidity;BMP_temperature;BMP_pressure;BME280_temperature;BME280_humidity;BME280_pressure;Samples;Min_cycle;Max_cycle;Signal;HPM_P1;HPM_P2
2022/04/03 00:00:32;;;;;;;1.65;1.20;;;;;;;;;;5070678;28;20025;-62
2022/04/03 00:02:58;;;;;;;2.95;1.67;;;;;;;;;;5070191;28;20024;-62
2022/04/03 00:05:24;;;;;;;1.85;1.50;;;;;;;;;;5071717;28;20481;-62
2022/04/03 00:07:50;;;;;;;1.92;1.50;;;;;;;;;;5087103;28;20028;-61
2022/04/03 00:10:17;;;;;;;1.58;1.33;;;;;;;;;;5090120;28;20051;-62
2022/04/03 00:12:46;;;;;;;2.17;1.35;;;;;;;;;;5094793;28;20027;-61
2022/04/03 00:15:12;;;;;;;1.65;1.20;;;;;;;;;;5094821;28;20036;-61
2022/04/03 00:17:38;;;;;;;2.75;1.38;;;;;;;;;;5095644;28;20024;-62
2022/04/03 00:20:05;;;;;;;2.30;1.63;;;;;;;;;;5094784;28;20036;-63
2022/04/03 00:22:31;;;;;;;1.63;1.40;;;;;;;;;;5094708;28;20066;-63
2022/04/03 00:24:57;;;;;;;2.22;1.77;;;;;;;;;;5094163;28;20059;-63
2022/04/03 00:27:23;;;;;;;1.88;1.45;;;;;;;;;;5094155;28;20008;-64
2022/04/03 00:29:49;;;;;;;1.88;1.48;;;;;;;;;;5076680;28;20028;-62
2022/04/03 00:32:15;;;;;;;2.00;1.80;;;;;;;;;;5094294;28;20074;-62
2022/04/03 00:34:41;;;;;;;2.38;1.35;;;;;;;;;;5095437;28;20066;-62
2022/04/03 00:37:07;;;;;;;1.73;1.40;;;;;;;;;;5094179;28;20026;-62
2022/04/03 00:39:33;;;;;;;1.60;1.13;;;;;;;;;;5095163;28;20024;-63
2022/04/03 00:41:59;;;;;;;1.80;1.50;;;;;;;;;;5093608;28;20036;-63
2022/04/03 00:44:25;;;;;;;1.80;1.40;;;;;;;;;;5095012;28;20099;-62
2022/04/03 00:46:51;;;;;;;3.85;1.52;;;;;;;;;;5095010;28;20028;-62
2022/04/03 00:49:17;;;;;;;1.40;1.20;;;;;;;;;;5094439;28;20040;-63
2022/04/03 00:51:43;;;;;;;1.75;1.48;;;;;;;;;;5095332;28;20070;-61
2022/04/03 00:54:09;;;;;;;1.88;1.40;;;;;;;;;;5094138;28;20039;-61
2022/04/03 00:56:35;;;;;;;1.55;1.23;;;;;;;;;;5094399;28;20081;-62
2022/04/03 00:59:02;;;;;;;2.80;2.15;;;;;;;;;;5094004;28;20111;-62
2022/04/03 01:01:27;;;;;;;1.60;1.33;;;;;;;;;;5095508;28;20036;-62
2022/04/03 01:03:54;;;;;;;1.90;1.45;;;;;;;;;;5094966;28;20350;-62
2022/04/03 01:06:20;;;;;;;2.10;1.60;;;;;;;;;;5094324;28;20028;-62
2022/04/03 01:08:46;;;;;;;1.67;1.42;;;;;;;;;;5094921;28;20073;-62
2022/04/03 01:11:12;;;;;;;2.40;1.63;;;;;;;;;;5094204;28;20073;-62
2022/04/03 01:13:51;;;;;;;2.05;1.17;;;;;;;;;;5094391;28;20024;-62
2022/04/03 01:16:18;;;;;;;1.45;1.20;;;;;;;;;;5093685;28;20640;-62
2022/04/03 01:18:44;;;;;;;2.78;1.30;;;;;;;;;;5094163;28;20020;-62
2022/04/03 01:21:10;;;;;;;1.20;1.05;;;;;;;;;;5092388;28;20404;-62
2022/04/03 01:23:36;;;;;;;2.63;1.50;;;;;;;;;;5093702;28;20028;-63
2022/04/03 01:26:03;;;;;;;1.95;1.52;;;;;;;;;;5093524;28;20024;-63
2022/04/03 01:28:29;;;;;;;1.65;1.42;;;;;;;;;;5093579;28;20533;-62
2022/04/03 01:30:55;;;;;;;2.50;1.33;;;;;;;;;;5092732;28;20107;-63
2022/04/03 01:33:21;;;;;;;1.83;1.25;;;;;;;;;;5093990;28;20024;-63
2022/04/03 01:35:47;;;;;;;1.95;1.10;;;;;;;;;;5094422;28;20032;-62
2022/04/03 01:38:13;;;;;;;2.70;1.40;;;;;;;;;;5093498;28;20040;-62
2022/04/03 01:40:39;;;;;;;3.13;1.25;;;;;;;;;;5093248;28;20114;-62
2022/04/03 01:43:09;;;;;;;2.58;1.33;;;;;;;;;;5092467;28;20032;-62
2022/04/03 01:45:38;;;;;;;2.63;1.42;;;;;;;;;;5093849;28;20024;-62
2022/04/03 01:48:05;;;;;;;1.80;1.58;;;;;;;;;;5093454;28;20020;-62
2022/04/03 01:50:31;;;;;;;1.10;1.00;;;;;;;;;;5093922;28;20355;-62
2022/04/03 01:52:57;;;;;;;2.25;1.25;;;;;;;;;;5093193;28;20541;-62
2022/04/03 01:55:25;;;;;;;3.72;1.65;;;;;;;;;;5093560;28;20023;-62
2022/04/03 01:57:51;;;;;;;2.25;1.50;;;;;;;;;;5093477;28;20027;-62
2022/04/03 02:00:18;;;;;;;2.20;1.40;;;;;;;;;;5093123;28;20226;-62
2022/04/03 02:02:45;;;;;;;2.00;1.40;;;;;;;;;;5093778;28;20020;-62
2022/04/03 02:05:11;;;;;;;1.73;1.10;;;;;;;;;;5092223;28;20016;-62
2022/04/03 02:07:37;;;;;;;2.22;1.40;;;;;;;;;;5093226;28;20495;-62
2022/04/03 02:10:04;;;;;;;1.73;1.25;;;;;;;;;;5074768;28;20032;-62
2022/04/03 02:12:30;;;;;;;2.88;1.63;;;;;;;;;;5093769;28;20050;-62
2022/04/03 02:14:56;;;;;;;1.48;1.23;;;;;;;;;;5092298;28;20032;-62
2022/04/03 02:17:22;;;;;;;1.65;1.30;;;;;;;;;;5092990;28;20025;-62
2022/04/03 02:19:48;;;;;;;4.65;1.65;;;;;;;;;;5093140;28;20028;-62
2022/04/03 02:22:14;;;;;;;1.40;1.15;;;;;;;;;;5092742;28;20024;-61
2022/04/03 02:24:40;;;;;;;1.77;1.30;;;;;;;;;;5093074;28;20020;-62
2022/04/03 02:27:07;;;;;;;1.77;1.25;;;;;;;;;;5092633;28;20028;-62
2022/04/03 02:29:33;;;;;;;1.83;1.23;;;;;;;;;;5092682;28;20032;-62
2022/04/03 02:31:59;;;;;;;2.38;1.30;;;;;;;;;;5074677;28;20481;-62
2022/04/03 02:34:26;;;;;;;1.38;1.23;;;;;;;;;;5092838;28;20020;-62
2022/04/03 02:36:52;;;;;;;1.90;1.10;;;;;;;;;;5092758;28;20142;-62
2022/04/03 02:39:19;;;;;;;2.08;1.20;;;;;;;;;;5091689;28;20044;-62
2022/04/03 02:41:45;;;;;;;2.33;1.48;;;;;;;;;;5092860;28;20027;-62
2022/04/03 02:44:11;;;;;;;1.50;1.30;;;;;;;;;;5092245;28;20191;-62
2022/04/03 02:46:37;;;;;;;2.17;1.25;;;;;;;;;;5092616;28;20028;-62
2022/04/03 02:49:03;;;;;;;2.20;1.45;;;;;;;;;;5092184;28;20031;-62
2022/04/03 02:51:29;;;;;;;2.70;1.42;;;;;;;;;;5092856;28;20024;-62
2022/04/03 02:53:55;;;;;;;2.60;1.17;;;;;;;;;;5092608;28;20024;-62
2022/04/03 02:56:21;;;;;;;1.63;1.20;;;;;;;;;;5092342;28;20027;-62
2022/04/03 02:58:48;;;;;;;1.55;1.30;;;;;;;;;;5092682;28;20205;-62
2022/04/03 03:01:14;;;;;;;3.05;1.45;;;;;;;;;;5091378;28;20056;-62
2022/04/03 03:03:40;;;;;;;2.97;1.50;;;;;;;;;;5092463;28;20020;-62
2022/04/03 03:06:06;;;;;;;1.33;1.15;;;;;;;;;;5091930;28;20051;-62
2022/04/03 03:08:32;;;;;;;1.65;1.48;;;;;;;;;;5074222;28;20059;-62
2022/04/03 03:10:58;;;;;;;1.73;1.17;;;;;;;;;;5092309;28;20115;-62
2022/04/03 03:13:24;;;;;;;2.50;1.45;;;;;;;;;;5092071;28;20103;-62
2022/04/03 03:15:50;;;;;;;1.90;1.70;;;;;;;;;;5090728;28;20019;-61
2022/04/03 03:18:16;;;;;;;1.45;1.20;;;;;;;;;;5091509;28;20030;-61
2022/04/03 03:20:42;;;;;;;3.63;1.23;;;;;;;;;;5092387;28;20028;-61
2022/04/03 03:23:08;;;;;;;1.58;1.38;;;;;;;;;;5078480;28;20472;-61
2022/04/03 03:25:34;;;;;;;2.63;1.30;;;;;;;;;;5092123;28;20025;-61
2022/04/03 03:28:00;;;;;;;2.55;1.20;;;;;;;;;;5091905;28;20477;-61
2022/04/03 03:30:26;;;;;;;1.88;1.48;;;;;;;;;;5091551;28;20028;-61
2022/04/03 03:32:52;;;;;;;1.70;1.13;;;;;;;;;;5092150;28;20047;-61
2022/04/03 03:35:18;;;;;;;1.83;1.50;;;;;;;;;;5090806;28;20054;-63
2022/04/03 03:37:45;;;;;;;2.10;1.38;;;;;;;;;;5091744;28;20392;-61
2022/04/03 03:40:11;;;;;;;2.40;1.23;;;;;;;;;;5091345;28;20035;-62
2022/04/03 03:42:41;;;;;;;1.65;1.20;;;;;;;;;;5091623;28;20554;-62
2022/04/03 03:45:08;;;;;;;1.52;1.20;;;;;;;;;;5091249;28;20381;-62
2022/04/03 03:47:34;;;;;;;1.90;1.20;;;;;;;;;;5090842;28;20038;-62
2022/04/03 03:50:01;;;;;;;4.32;1.52;;;;;;;;;;5091623;28;20020;-62
2022/04/03 03:52:28;;;;;;;1.80;1.08;;;;;;;;;;5091890;28;20055;-62
2022/04/03 03:54:54;;;;;;;1.98;1.52;;;;;;;;;;5091870;28;20028;-62
2022/04/03 03:57:22;;;;;;;1.52;1.20;;;;;;;;;;5090819;28;20035;-62
2022/04/03 03:59:48;;;;;;;1.30;1.10;;;;;;;;;;5091683;28;20064;-62
2022/04/03 04:02:14;;;;;;;2.20;1.23;;;;;;;;;;5090459;28;20110;-62
2022/04/03 04:04:40;;;;;;;1.80;1.25;;;;;;;;;;5091463;28;20024;-62
2022/04/03 04:07:06;;;;;;;2.78;1.20;;;;;;;;;;5090647;28;20085;-62
2022/04/03 04:09:32;;;;;;;1.55;1.20;;;;;;;;;;5091995;28;20036;-62
2022/04/03 04:11:58;;;;;;;2.03;1.67;;;;;;;;;;5091729;28;20024;-62
2022/04/03 04:14:24;;;;;;;1.30;1.10;;;;;;;;;;5090713;28;20020;-62
2022/04/03 04:16:50;;;;;;;2.30;1.33;;;;;;;;;;5091572;28;20032;-62
2022/04/03 04:19:16;;;;;;;1.67;1.08;;;;;;;;;;5077636;28;20028;-62
2022/04/03 04:21:42;;;;;;;1.52;1.30;;;;;;;;;;5091588;28;20028;-62
2022/04/03 04:24:10;;;;;;;2.13;1.30;;;;;;;;;;5091055;28;20029;-62
2022/04/03 04:26:36;;;;;;;1.85;1.25;;;;;;;;;;5091716;28;20129;-62
2022/04/03 04:29:02;;;;;;;2.05;1.20;;;;;;;;;;5091154;28;20039;-63
2022/04/03 04:31:28;;;;;;;1.85;1.33;;;;;;;;;;5090890;28;20095;-62
2022/04/03 04:33:54;;;;;;;1.75;1.42;;;;;;;;;;5091664;28;20107;-62
2022/04/03 04:36:21;;;;;;;3.90;1.45;;;;;;;;;;5089627;28;20023;-62
2022/04/03 04:38:47;;;;;;;2.55;1.33;;;;;;;;;;5090778;28;20057;-62
2022/04/03 04:41:13;;;;;;;2.25;1.27;;;;;;;;;;5090763;28;20028;-62
2022/04/03 04:43:40;;;;;;;2.88;1.05;;;;;;;;;;5091640;28;20016;-62
2022/04/03 04:46:06;;;;;;;2.92;1.48;;;;;;;;;;5090535;28;20020;-62
2022/04/03 04:48:32;;;;;;;1.65;1.35;;;;;;;;;;5091233;28;20515;-62
2022/04/03 04:50:58;;;;;;;2.17;1.00;;;;;;;;;;5091595;28;20032;-62
2022/04/03 04:53:24;;;;;;;3.17;1.80;;;;;;;;;;5089634;28;20025;-62
2022/04/03 04:55:50;;;;;;;2.10;1.17;;;;;;;;;;5090840;28;20027;-63
2022/04/03 04:58:16;;;;;;;3.88;1.88;;;;;;;;;;5091089;28;20035;-62
2022/04/03 05:00:42;;;;;;;3.13;1.50;;;;;;;;;;5094751;28;20028;-62
2022/04/03 05:03:08;;;;;;;2.38;1.20;;;;;;;;;;5094130;28;20060;-63
2022/04/03 05:05:35;;;;;;;3.75;1.40;;;;;;;;;;5094711;28;20048;-62
2022/04/03 05:08:01;;;;;;;7.25;1.60;;;;;;;;;;5094596;28;20043;-63
2022/04/03 05:10:29;;;;;;;2.22;1.27;;;;;;;;;;5075824;28;20105;-61
2022/04/03 05:12:55;;;;;;;4.90;2.03;;;;;;;;;;5094612;28;20027;-61
2022/04/03 05:15:22;;;;;;;3.70;1.90;;;;;;;;;;5098798;28;20030;-63
2022/04/03 05:17:48;;;;;;;7.35;1.77;;;;;;;;;;5095307;28;20016;-61
2022/04/03 05:20:15;;;;;;;3.42;1.40;;;;;;;;;;5093896;28;20047;-62
2022/04/03 05:22:42;;;;;;;3.92;1.48;;;;;;;;;;5098692;28;20056;-62
2022/04/03 05:25:10;;;;;;;4.90;1.30;;;;;;;;;;5093104;28;20039;-62
2022/04/03 05:27:37;;;;;;;2.35;1.17;;;;;;;;;;5094498;28;20419;-61
2022/04/03 05:30:03;;;;;;;4.53;1.60;;;;;;;;;;5094565;28;20432;-62
2022/04/03 05:32:30;;;;;;;1.67;1.25;;;;;;;;;;5093878;28;20024;-62
2022/04/03 05:34:57;;;;;;;6.55;1.73;;;;;;;;;;5092891;28;20039;-62
2022/04/03 05:37:23;;;;;;;2.40;1.10;;;;;;;;;;5092742;28;20083;-62
2022/04/03 05:39:51;;;;;;;5.78;1.35;;;;;;;;;;5092715;28;20380;-61
2022/04/03 05:42:17;;;;;;;3.45;1.50;;;;;;;;;;5093293;28;20074;-60
2022/04/03 05:44:43;;;;;;;2.60;1.17;;;;;;;;;;5094793;28;20016;-60
2022/04/03 05:47:09;;;;;;;6.95;1.70;;;;;;;;;;5094584;28;20422;-59
2022/04/03 05:49:37;;;;;;;9.77;2.15;;;;;;;;;;5094265;28;20027;-58
2022/04/03 05:52:03;;;;;;;2.17;1.15;;;;;;;;;;5096650;28;20020;-58
2022/04/03 05:54:29;;;;;;;4.80;1.23;;;;;;;;;;5094654;28;20020;-57
2022/04/03 05:56:55;;;;;;;7.00;1.63;;;;;;;;;;5093527;28;20032;-62
2022/04/03 05:59:22;;;;;;;6.32;1.27;;;;;;;;;;5092828;28;20032;-61
2022/04/03 06:01:48;;;;;;;3.15;1.10;;;;;;;;;;5094163;28;20067;-61
2022/04/03 06:04:14;;;;;;;4.78;1.50;;;;;;;;;;5092557;28;20428;-61
2022/04/03 06:06:41;;;;;;;7.93;2.47;;;;;;;;;;5093710;28;20023;-63
2022/04/03 06:09:07;;;;;;;2.90;1.27;;;;;;;;;;5098589;28;20109;-61
2022/04/03 06:11:33;;;;;;;4.60;0.90;;;;;;;;;;5093570;28;20024;-60
2022/04/03 06:14:00;;;;;;;2.95;1.55;;;;;;;;;;5093365;28;20024;-59
2022/04/03 06:16:26;;;;;;;10.68;5.85;;;;;;;;;;5092635;28;20030;-61
2022/04/03 06:18:53;;;;;;;283.48;167.02;;;;;;;;;;5093410;28;20056;-60
2022/04/03 06:21:19;;;;;;;154.02;90.53;;;;;;;;;;5092737;28;20028;-61
2022/04/03 06:23:45;;;;;;;145.65;81.90;;;;;;;;;;5093378;28;20465;-63
2022/04/03 06:26:11;;;;;;;144.10;77.90;;;;;;;;;;5073663;28;20538;-60
2022/04/03 06:28:37;;;;;;;138.32;69.50;;;;;;;;;;5092691;28;20016;-63
2022/04/03 06:31:04;;;;;;;125.68;64.20;;;;;;;;;;5093384;28;20031;-60
2022/04/03 06:33:30;;;;;;;114.93;56.55;;;;;;;;;;5092200;28;20039;-59
2022/04/03 06:35:56;;;;;;;103.15;53.15;;;;;;;;;;5093020;28;20020;-60
2022/04/03 06:38:22;;;;;;;101.28;52.88;;;;;;;;;;5099247;28;20048;-62
2022/04/03 06:40:50;;;;;;;88.88;47.97;;;;;;;;;;5092803;28;20035;-59
2022/04/03 06:43:23;;;;;;;88.00;45.90;;;;;;;;;;5092135;28;20032;-60
2022/04/03 06:45:50;;;;;;;85.85;44.83;;;;;;;;;;5092176;28;20492;-63
2022/04/03 06:48:16;;;;;;;76.15;41.33;;;;;;;;;;5090731;28;20035;-61
2022/04/03 06:50:43;;;;;;;76.28;39.50;;;;;;;;;;5099357;28;20028;-60
2022/04/03 06:53:09;;;;;;;73.55;37.72;;;;;;;;;;5091788;28;20028;-60
2022/04/03 06:55:35;;;;;;;67.57;35.53;;;;;;;;;;5092337;28;20051;-61
2022/04/03 06:58:01;;;;;;;65.40;32.50;;;;;;;;;;5092669;28;20028;-62
2022/04/03 07:00:27;;;;;;;73.65;32.80;;;;;;;;;;5091744;28;20605;-62
2022/04/03 07:02:54;;;;;;;60.67;30.25;;;;;;;;;;5092869;28;20046;-61
2022/04/03 07:05:20;;;;;;;57.55;29.35;;;;;;;;;;5091119;28;20024;-59
2022/04/03 07:07:46;;;;;;;53.13;26.45;;;;;;;;;;5092282;28;20099;-60
2022/04/03 07:10:13;;;;;;;49.72;26.77;;;;;;;;;;5091477;28;20039;-60
2022/04/03 07:12:39;;;;;;;51.38;26.77;;;;;;;;;;5092294;28;20032;-60
2022/04/03 07:15:08;;;;;;;46.70;25.17;;;;;;;;;;5092205;28;20024;-61
2022/04/03 07:17:35;;;;;;;50.35;24.50;;;;;;;;;;5091506;28;20028;-61
2022/04/03 07:20:01;;;;;;;45.75;22.88;;;;;;;;;;5091445;28;20024;-61
2022/04/03 07:22:27;;;;;;;45.83;23.00;;;;;;;;;;5090929;28;20040;-60
2022/04/03 07:24:53;;;;;;;44.53;22.13;;;;;;;;;;5092067;28;20027;-60
2022/04/03 07:27:19;;;;;;;51.08;21.20;;;;;;;;;;5091345;28;20039;-60
2022/04/03 07:29:45;;;;;;;45.17;20.42;;;;;;;;;;5091488;28;20103;-60
2022/04/03 07:32:11;;;;;;;40.33;18.20;;;;;;;;;;5091032;28;20107;-60
2022/04/03 07:34:37;;;;;;;43.97;18.95;;;;;;;;;;5075552;28;20047;-60
2022/04/03 07:37:03;;;;;;;41.50;19.05;;;;;;;;;;5090624;28;20031;-59
2022/04/03 07:39:30;;;;;;;38.55;17.92;;;;;;;;;;5088871;28;20100;-60
2022/04/03 07:41:56;;;;;;;32.83;16.80;;;;;;;;;;5091971;28;20028;-60
2022/04/03 07:44:23;;;;;;;38.15;16.77;;;;;;;;;;5090714;28;20447;-60
2022/04/03 07:46:49;;;;;;;31.90;15.60;;;;;;;;;;5091574;28;20028;-60
2022/04/03 07:49:15;;;;;;;30.33;17.02;;;;;;;;;;5091473;28;20032;-60
2022/04/03 07:51:42;;;;;;;29.52;14.48;;;;;;;;;;5091886;28;20024;-60
2022/04/03 07:54:08;;;;;;;33.38;15.70;;;;;;;;;;5091413;28;20073;-60
2022/04/03 07:56:35;;;;;;;29.83;14.82;;;;;;;;;;5091030;28;20073;-60
2022/04/03 07:59:03;;;;;;;27.90;14.02;;;;;;;;;;5092026;28;20016;-60
2022/04/03 08:01:29;;;;;;;26.73;13.82;;;;;;;;;;5090384;28;20656;-60
2022/04/03 08:03:55;;;;;;;24.85;12.82;;;;;;;;;;5091922;28;20012;-60
2022/04/03 08:06:21;;;;;;;25.25;13.57;;;;;;;;;;5090156;28;20366;-60
2022/04/03 08:08:48;;;;;;;25.08;13.48;;;;;;;;;;5092109;28;20020;-60
2022/04/03 08:11:14;;;;;;;23.00;12.70;;;;;;;;;;5090603;28;20027;-60
2022/04/03 08:13:40;;;;;;;24.48;11.98;;;;;;;;;;5091998;28;20024;-61
2022/04/03 08:16:06;;;;;;;25.10;12.07;;;;;;;;;;5091296;28;20380;-60
2022/04/03 08:18:32;;;;;;;20.40;11.00;;;;;;;;;;5091097;28;20069;-60
2022/04/03 08:20:58;;;;;;;24.50;11.32;;;;;;;;;;5087254;28;20040;-59
2022/04/03 08:23:24;;;;;;;22.33;10.60;;;;;;;;;;5089526;28;20036;-60
2022/04/03 08:25:50;;;;;;;19.65;10.45;;;;;;;;;;5092485;28;20030;-59
2022/04/03 08:28:17;;;;;;;18.83;10.65;;;;;;;;;;5090844;28;20106;-60
2022/04/03 08:30:43;;;;;;;20.77;11.02;;;;;;;;;;5091674;28;20078;-60
2022/04/03 08:33:09;;;;;;;20.58;9.50;;;;;;;;;;5093373;28;20099;-59
2022/04/03 08:35:38;;;;;;;19.38;9.25;;;;;;;;;;5095061;28;20028;-59
2022/04/03 08:38:05;;;;;;;21.48;10.10;;;;;;;;;;5095325;28;20056;-59
2022/04/03 08:40:33;;;;;;;16.95;8.23;;;;;;;;;;5094683;28;20093;-59
2022/04/03 08:42:59;;;;;;;17.35;8.30;;;;;;;;;;5094905;28;20028;-59
2022/04/03 08:45:25;;;;;;;18.13;9.32;;;;;;;;;;5094334;28;20032;-60
2022/04/03 08:47:52;;;;;;;16.15;9.27;;;;;;;;;;5095110;28;20051;-60
2022/04/03 08:50:19;;;;;;;13.60;8.73;;;;;;;;;;5093734;28;20032;-59
2022/04/03 08:52:49;;;;;;;15.50;7.97;;;;;;;;;;5094345;28;20385;-59
2022/04/03 08:55:15;;;;;;;14.90;8.25;;;;;;;;;;5094183;28;20031;-60
2022/04/03 08:57:42;;;;;;;15.18;8.57;;;;;;;;;;5094260;28;20032;-60
2022/04/03 09:00:08;;;;;;;17.65;8.23;;;;;;;;;;5090503;28;20047;-59
2022/04/03 09:02:34;;;;;;;13.60;7.00;;;;;;;;;;5094012;28;20031;-60
2022/04/03 09:05:00;;;;;;;12.60;7.82;;;;;;;;;;5094469;28;20112;-60
2022/04/03 09:07:27;;;;;;;11.48;6.72;;;;;;;;;;5075627;28;20097;-59
2022/04/03 09:09:57;;;;;;;20.40;7.10;;;;;;;;;;5094719;28;20034;-59
2022/04/03 09:12:23;;;;;;;12.43;6.60;;;;;;;;;;5094153;28;20052;-59
2022/04/03 09:14:49;;;;;;;13.10;7.05;;;;;;;;;;5094377;28;20369;-60
2022/04/03 09:17:33;;;;;;;9.48;6.38;;;;;;;;;;5093768;28;20022;-60
2022/04/03 09:20:07;;;;;;;12.02;7.55;;;;;;;;;;5094902;28;20032;-60
2022/04/03 09:22:35;;;;;;;12.27;6.10;;;;;;;;;;5073139;28;20482;-60
2022/04/03 09:25:01;;;;;;;13.95;6.93;;;;;;;;;;5074144;28;20422;-59
2022/04/03 09:27:27;;;;;;;10.40;6.43;;;;;;;;;;5081597;28;20039;-60
2022/04/03 09:30:02;;;;;;;10.43;6.10;;;;;;;;;;5094269;28;20073;-59
2022/04/03 09:32:28;;;;;;;10.95;6.32;;;;;;;;;;5093523;28;20024;-60
2022/04/03 09:34:56;;;;;;;9.80;5.80;;;;;;;;;;5094153;28;20400;-59
2022/04/03 09:37:22;;;;;;;10.10;5.43;;;;;;;;;;5074906;28;20024;-59
2022/04/03 09:39:48;;;;;;;10.45;5.60;;;;;;;;;;5079665;28;20115;-59
2022/04/03 09:42:15;;;;;;;9.18;6.05;;;;;;;;;;5093249;28;20029;-59
2022/04/03 09:44:45;;;;;;;8.38;5.10;;;;;;;;;;5092233;28;20104;-59
2022/04/03 09:47:14;;;;;;;8.13;4.90;;;;;;;;;;5093742;28;20055;-59
2022/04/03 09:49:40;;;;;;;10.50;5.60;;;;;;;;;;5093168;28;20038;-62
2022/04/03 09:52:07;;;;;;;10.73;5.57;;;;;;;;;;5093281;28;20401;-60
2022/04/03 09:54:33;;;;;;;13.20;5.45;;;;;;;;;;5092743;28;20024;-59
2022/04/03 09:57:18;;;;;;;11.13;5.32;;;;;;;;;;5094019;28;20028;-63
2022/04/03 09:59:51;;;;;;;12.45;5.20;;;;;;;;;;5081867;28;20046;-61
2022/04/03 10:02:17;;;;;;;9.95;4.93;;;;;;;;;;5092565;28;20032;-62
2022/04/03 10:04:45;;;;;;;9.30;4.82;;;;;;;;;;5092208;28;20036;-61
2022/04/03 10:07:13;;;;;;;9.30;5.32;;;;;;;;;;5093536;28;20055;-62
2022/04/03 10:09:44;;;;;;;11.18;4.50;;;;;;;;;;5092612;28;20028;-61
2022/04/03 10:12:10;;;;;;;11.73;4.60;;;;;;;;;;5093821;28;20032;-61
2022/04/03 10:14:36;;;;;;;9.15;3.92;;;;;;;;;;5092980;28;20262;-62
2022/04/03 10:17:02;;;;;;;10.30;4.70;;;;;;;;;;5093096;28;20373;-62
2022/04/03 10:19:28;;;;;;;7.65;4.10;;;;;;;;;;5092487;28;20377;-61
2022/04/03 10:21:55;;;;;;;8.10;4.43;;;;;;;;;;5093323;28;20032;-61
2022/04/03 10:24:23;;;;;;;7.50;3.78;;;;;;;;;;5092581;28;20028;-61
2022/04/03 10:26:51;;;;;;;8.68;4.15;;;;;;;;;;5093094;28;20093;-62
2022/04/03 10:29:17;;;;;;;8.90;3.90;;;;;;;;;;5092873;28;20042;-61
2022/04/03 10:31:58;;;;;;;10.20;4.28;;;;;;;;;;5092226;28;20020;-62
2022/04/03 10:34:26;;;;;;;7.28;3.33;;;;;;;;;;5092025;28;20031;-61
2022/04/03 10:36:52;;;;;;;9.30;4.40;;;;;;;;;;5092219;28;20376;-61
2022/04/03 10:39:28;;;;;;;9.00;4.15;;;;;;;;;;5091873;28;20079;-61
2022/04/03 10:42:13;;;;;;;6.22;3.40;;;;;;;;;;5092983;28;20126;-61
2022/04/03 10:44:39;;;;;;;7.85;3.65;;;;;;;;;;5092593;28;20335;-61
2022/04/03 10:47:05;;;;;;;5.50;3.33;;;;;;;;;;5092565;28;20466;-61
2022/04/03 10:49:51;;;;;;;4.55;3.33;;;;;;;;;;5092365;28;20042;-61
2022/04/03 10:52:24;;;;;;;6.47;3.53;;;;;;;;;;5089872;28;20102;-61
2022/04/03 10:54:51;;;;;;;11.05;3.88;;;;;;;;;;5093169;28;20024;-61
2022/04/03 10:57:41;;;;;;;7.35;3.88;;;;;;;;;;5073299;28;20028;-61
2022/04/03 11:00:27;;;;;;;6.22;3.42;;;;;;;;;;5092541;28;20111;-61
2022/04/03 11:02:59;;;;;;;5.47;2.65;;;;;;;;;;5085081;28;20032;-61
2022/04/03 11:05:26;;;;;;;7.20;4.05;;;;;;;;;;5092119;28;20420;-61
2022/04/03 11:07:52;;;;;;;5.35;2.88;;;;;;;;;;5091875;28;20441;-62
2022/04/03 11:10:37;;;;;;;4.20;2.67;;;;;;;;;;5092157;28;20063;-61
2022/04/03 11:13:08;;;;;;;7.55;2.58;;;;;;;;;;5092379;28;20039;-61
2022/04/03 11:15:44;;;;;;;4.25;2.40;;;;;;;;;;5091217;28;20028;-61
2022/04/03 11:18:28;;;;;;;5.18;2.67;;;;;;;;;;5092272;28;20519;-61
2022/04/03 11:21:07;;;;;;;7.50;3.70;;;;;;;;;;5092532;28;20047;-61
2022/04/03 11:23:35;;;;;;;5.43;2.50;;;;;;;;;;5090858;28;20350;-61
2022/04/03 11:26:01;;;;;;;3.00;2.42;;;;;;;;;;5077982;28;20028;-61
2022/04/03 11:28:27;;;;;;;4.68;2.70;;;;;;;;;;5091369;28;20024;-61
2022/04/03 11:30:53;;;;;;;5.95;2.58;;;;;;;;;;5092171;28;20081;-61
2022/04/03 11:33:19;;;;;;;3.85;2.05;;;;;;;;;;5091838;28;20384;-61
2022/04/03 11:35:46;;;;;;;4.63;2.25;;;;;;;;;;5091551;28;20472;-61
2022/04/03 11:38:13;;;;;;;4.60;2.70;;;;;;;;;;5091892;28;20075;-61
2022/04/03 11:40:42;;;;;;;5.45;2.72;;;;;;;;;;5090543;28;20039;-61
2022/04/03 11:43:09;;;;;;;3.65;2.22;;;;;;;;;;5092037;28;20027;-61
2022/04/03 11:45:35;;;;;;;4.25;2.58;;;;;;;;;;5091270;28;20073;-61
2022/04/03 11:48:15;;;;;;;5.47;2.30;;;;;;;;;;5091999;28;20034;-61
2022/04/03 11:50:41;;;;;;;5.10;2.47;;;;;;;;;;5091315;28;20070;-61
2022/04/03 11:53:10;;;;;;;3.83;2.65;;;;;;;;;;5091762;28;20056;-61
2022/04/03 11:55:37;;;;;;;4.20;2.92;;;;;;;;;;5090408;28;20028;-61
2022/04/03 11:58:06;;;;;;;4.07;2.50;;;;;;;;;;5092039;28;20081;-61
2022/04/03 12:00:32;;;;;;;3.63;2.08;;;;;;;;;;5091036;28;20034;-61
2022/04/03 12:02:58;;;;;;;5.70;2.38;;;;;;;;;;5091706;28;20100;-61
2022/04/03 12:05:24;;;;;;;4.57;2.28;;;;;;;;;;5090312;28;20024;-61
2022/04/03 12:07:51;;;;;;;3.53;2.10;;;;;;;;;;5093645;28;20085;-62
2022/04/03 12:10:23;;;;;;;4.45;1.92;;;;;;;;;;5096062;28;20055;-61
2022/04/03 12:12:49;;;;;;;4.53;2.67;;;;;;;;;;5094497;28;20093;-61
2022/04/03 12:15:19;;;;;;;3.88;2.25;;;;;;;;;;5095086;28;20473;-62
2022/04/03 12:17:45;;;;;;;4.70;2.40;;;;;;;;;;5095555;28;20023;-62
2022/04/03 12:20:15;;;;;;;3.47;2.30;;;;;;;;;;5095451;28;20381;-61
2022/04/03 12:22:42;;;;;;;3.40;1.90;;;;;;;;;;5095131;28;20020;-61
2022/04/03 12:25:09;;;;;;;3.38;2.00;;;;;;;;;;5095575;28;20035;-61
2022/04/03 12:27:37;;;;;;;6.30;2.38;;;;;;;;;;5094561;28;20032;-61
2022/04/03 12:30:03;;;;;;;4.22;1.85;;;;;;;;;;5095082;28;20036;-61
2022/04/03 12:32:37;;;;;;;3.78;1.92;;;;;;;;;;5094455;28;20103;-61
2022/04/03 12:35:07;;;;;;;2.53;2.00;;;;;;;;;;5095322;28;20496;-61
2022/04/03 12:37:52;;;;;;;2.53;1.65;;;;;;;;;;5076603;28;20028;-61
2022/04/03 12:40:18;;;;;;;2.53;1.60;;;;;;;;;;5095482;28;20028;-61
2022/04/03 12:42:48;;;;;;;2.63;1.58;;;;;;;;;;5076664;28;20031;-62
2022/04/03 12:45:15;;;;;;;4.03;1.65;;;;;;;;;;5078600;28;20028;-61
2022/04/03 12:47:43;;;;;;;2.50;1.30;;;;;;;;;;5074083;28;20017;-61
2022/04/03 12:50:11;;;;;;;3.15;1.58;;;;;;;;;;5075052;28;20039;-62
2022/04/03 12:52:40;;;;;;;4.03;1.80;;;;;;;;;;5073741;28;20482;-61
2022/04/03 12:55:07;;;;;;;2.72;1.42;;;;;;;;;;5074776;28;20136;-59
2022/04/03 13:00:18;;;;;;;5.30;2.00;;;;;;;;;;5083821;28;20138;-58
2022/04/03 13:02:50;;;;;;;7.07;2.25;;;;;;;;;;5086497;28;20106;-64
2022/04/03 13:05:18;;;;;;;5.55;1.95;;;;;;;;;;5076975;28;20032;-62
2022/04/03 13:07:45;;;;;;;4.40;1.20;;;;;;;;;;5071659;28;20525;-61
2022/04/03 13:10:14;;;;;;;3.70;1.85;;;;;;;;;;5077399;28;20052;-60
2022/04/03 13:12:40;;;;;;;2.90;1.70;;;;;;;;;;5075773;28;20098;-61
2022/04/03 13:15:06;;;;;;;5.63;1.75;;;;;;;;;;5073285;28;20033;-60
2022/04/03 13:17:32;;;;;;;3.60;1.80;;;;;;;;;;5072559;28;20415;-54
2022/04/03 13:19:58;;;;;;;3.92;1.70;;;;;;;;;;5072802;28;20043;-60
2022/04/03 13:22:24;;;;;;;6.65;2.22;;;;;;;;;;5071693;28;20056;-59
2022/04/03 13:24:50;;;;;;;5.75;1.90;;;;;;;;;;5056260;28;20036;-58
2022/04/03 13:27:16;;;;;;;3.50;1.58;;;;;;;;;;5059608;28;20389;-59
2022/04/03 13:29:42;;;;;;;4.97;1.83;;;;;;;;;;5072968;28;20210;-59
2022/04/03 13:32:08;;;;;;;6.13;1.40;;;;;;;;;;5073763;28;20020;-58
2022/04/03 13:34:35;;;;;;;7.97;1.60;;;;;;;;;;5075570;28;20027;-58
2022/04/03 13:37:01;;;;;;;6.90;2.38;;;;;;;;;;5073323;28;20020;-55
2022/04/03 13:39:28;;;;;;;4.75;1.45;;;;;;;;;;5072653;28;20052;-59
2022/04/03 13:41:55;;;;;;;6.30;1.48;;;;;;;;;;5079953;28;20024;-56
2022/04/03 13:44:21;;;;;;;8.63;2.00;;;;;;;;;;5093626;28;20051;-61
2022/04/03 13:46:48;;;;;;;5.57;1.27;;;;;;;;;;5093380;28;20104;-60
2022/04/03 13:49:14;;;;;;;6.90;1.65;;;;;;;;;;5094026;28;20354;-60
2022/04/03 13:51:40;;;;;;;6.95;1.20;;;;;;;;;;5092816;28;20059;-59
2022/04/03 13:54:07;;;;;;;2.50;1.20;;;;;;;;;;5093550;28;20039;-58
2022/04/03 13:56:33;;;;;;;5.82;1.45;;;;;;;;;;5093013;28;20350;-58
2022/04/03 13:59:00;;;;;;;5.55;1.60;;;;;;;;;;5093693;28;20103;-60
2022/04/03 14:01:27;;;;;;;3.92;1.30;;;;;;;;;;5092530;28;20040;-63
2022/04/03 14:03:53;;;;;;;2.45;1.00;;;;;;;;;;5093487;28;20012;-62
2022/04/03 14:06:19;;;;;;;4.20;1.30;;;;;;;;;;5093203;28;20406;-61
2022/04/03 14:08:45;;;;;;;4.15;1.00;;;;;;;;;;5090496;28;20157;-63
2022/04/03 14:11:11;;;;;;;4.75;1.50;;;;;;;;;;5093675;28;20107;-62
2022/04/03 14:13:37;;;;;;;3.42;1.30;;;;;;;;;;5092194;28;20028;-60
2022/04/03 14:16:04;;;;;;;1.25;0.88;;;;;;;;;;5093118;28;20115;-60
2022/04/03 14:18:30;;;;;;;5.22;1.30;;;;;;;;;;5092409;28;20031;-61
2022/04/03 14:20:57;;;;;;;2.67;1.00;;;;;;;;;;5092785;28;20050;-62
2022/04/03 14:23:26;;;;;;;2.80;1.10;;;;;;;;;;5092209;28;20124;-62
2022/04/03 14:25:53;;;;;;;3.20;1.20;;;;;;;;;;5093172;28;20107;-58
2022/04/03 14:28:19;;;;;;;1.67;1.13;;;;;;;;;;5093352;28;20399;-62
2022/04/03 14:30:46;;;;;;;3.05;0.90;;;;;;;;;;5091888;28;20119;-60
2022/04/03 14:33:12;;;;;;;3.50;1.08;;;;;;;;;;5093127;28;20020;-58
2022/04/03 14:35:38;;;;;;;2.70;0.95;;;;;;;;;;5092301;28;20055;-61
2022/04/03 14:38:04;;;;;;;2.05;0.98;;;;;;;;;;5092413;28;20044;-61
2022/04/03 14:40:31;;;;;;;1.58;1.02;;;;;;;;;;5074195;28;20050;-67